Perry, Arkansas
Current Conditions -  °F | °C
As of 9:53 AM on Wednesday 22 Oct 2014 (Local Time) from KRUE Reporting Station
Clear Clear  
Wind Chill: 60°   Ceiling: Unl
Heat Index: 60°   Visibility: 10mi
Dew Point: 48°   Wind: 3mph
Humidity: 64%   Direction: NA
Pressure: 30.26"   Gusts: NA
Location:  35.05°N, 92.79°W
Report Text: KRUE 221453Z AUTO VRB03KT 10SM CLR 16/09 A3026 RMK AO2 SLP240 T01560089 53024
Loading
Personal Weather Stations






























Interactive Weather Map
Tropical Storm Tracking
New forecast layout! Learn more

10-Day Weather Forecast

Advertisements
Track Severe Weather on mobile